Time;durP1;ratioP1;P1;durP2;ratioP2;P2;SDS_P1;SDS_P2;PMS_P1;PMS_P2;Temp;Humidity;BMP_temperature;BMP_pressure;BME280_temperature;BME280_humidity;BME280_pressure;Samples;Min_cycle;Max_cycle;Signal;HPM_P1;HPM_P2
2021/12/02 00:02:19;;;;;;;0.50;0.47;;;18.90;49.40;;;;;;5065186;28;20119;-55
2021/12/02 00:04:47;;;;;;;2.35;0.20;;;18.90;49.40;;;;;;5063590;28;20045;-52
2021/12/02 00:07:14;;;;;;;1.83;0.30;;;18.90;49.40;;;;;;5065603;28;20040;-58
2021/12/02 00:09:41;;;;;;;1.10;0.17;;;18.90;49.40;;;;;;5065528;28;20098;-54
2021/12/02 00:12:10;;;;;;;2.08;0.20;;;18.90;49.40;;;;;;5065855;28;20044;-56
2021/12/02 00:14:42;;;;;;;0.80;0.10;;;18.90;49.30;;;;;;5064040;28;20056;-58
2021/12/02 00:17:14;;;;;;;0.65;0.13;;;18.90;49.30;;;;;;5063300;28;20037;-56
2021/12/02 00:22:28;;;;;;;0.38;0.10;;;18.90;49.30;;;;;;5066338;28;20519;-54
2021/12/02 00:25:01;;;;;;;0.35;0.20;;;18.90;49.40;;;;;;5065395;28;20071;-54
2021/12/02 00:27:31;;;;;;;0.63;0.10;;;18.80;49.30;;;;;;5063743;28;20123;-57
2021/12/02 00:29:59;;;;;;;1.30;0.13;;;18.80;49.30;;;;;;5063354;28;20036;-56
2021/12/02 00:32:29;;;;;;;1.50;0.38;;;18.80;49.30;;;;;;5064807;28;20316;-55
2021/12/02 00:34:57;;;;;;;1.63;0.25;;;18.80;49.30;;;;;;5064198;28;20074;-56
2021/12/02 00:37:26;;;;;;;0.57;0.10;;;18.80;49.30;;;;;;5065469;28;20120;-54
2021/12/02 00:39:54;;;;;;;0.60;0.10;;;18.80;49.30;;;;;;5063791;28;20436;-53
2021/12/02 00:42:21;;;;;;;0.40;0.20;;;18.80;49.30;;;;;;5064934;28;20036;-55
2021/12/02 00:44:50;;;;;;;0.60;0.10;;;18.80;49.40;;;;;;5064667;28;20782;-55
2021/12/02 00:47:18;;;;;;;0.70;0.10;;;18.80;49.40;;;;;;5064549;28;20040;-55
2021/12/02 00:49:47;;;;;;;1.95;0.10;;;18.80;49.40;;;;;;5062797;28;20055;-51
2021/12/02 00:52:16;;;;;;;0.40;0.30;;;18.80;49.40;;;;;;5063109;28;20033;-55
2021/12/02 00:54:45;;;;;;;0.40;0.10;;;18.80;49.50;;;;;;5064279;28;20033;-50
2021/12/02 00:57:13;;;;;;;2.88;0.10;;;18.80;49.50;;;;;;5064525;28;20090;-55
2021/12/02 00:59:41;;;;;;;2.72;0.20;;;18.80;49.50;;;;;;5064425;28;20032;-56
2021/12/02 01:02:11;;;;;;;1.45;0.10;;;18.80;49.60;;;;;;5064478;28;20115;-55
2021/12/02 01:04:39;;;;;;;0.85;0.75;;;18.80;49.70;;;;;;5062526;28;20055;-55
2021/12/02 01:07:06;;;;;;;0.90;0.10;;;18.80;49.80;;;;;;5064951;28;20051;-52
2021/12/02 01:09:34;;;;;;;4.40;0.10;;;18.80;49.90;;;;;;5064326;28;20460;-56
2021/12/02 01:12:02;;;;;;;1.77;0.30;;;18.80;49.90;;;;;;5064752;28;20044;-56
2021/12/02 01:14:29;;;;;;;1.02;0.73;;;18.80;49.90;;;;;;5064241;28;20052;-55
2021/12/02 01:16:56;;;;;;;2.70;0.20;;;18.80;49.90;;;;;;5064447;28;20094;-55
2021/12/02 01:19:25;;;;;;;1.13;0.10;;;18.80;49.90;;;;;;5065675;28;20106;-53
2021/12/02 01:21:54;;;;;;;0.80;0.15;;;18.80;49.80;;;;;;5064479;28;20075;-56
2021/12/02 01:24:24;;;;;;;1.33;0.10;;;18.80;50.20;;;;;;5064333;28;20435;-57
2021/12/02 01:26:54;;;;;;;1.23;0.10;;;18.80;49.80;;;;;;5061738;28;20432;-56
2021/12/02 01:29:23;;;;;;;1.13;0.15;;;18.80;49.80;;;;;;5064226;28;20032;-56
2021/12/02 01:31:54;;;;;;;0.63;0.10;;;18.80;49.80;;;;;;5063836;28;20052;-57
2021/12/02 01:34:27;;;;;;;4.95;0.28;;;18.80;49.80;;;;;;5065914;28;20464;-53
2021/12/02 01:36:55;;;;;;;1.23;0.25;;;18.80;49.80;;;;;;5064504;28;20063;-57
2021/12/02 01:39:23;;;;;;;2.47;0.55;;;18.80;49.80;;;;;;5063712;28;20458;-57
2021/12/02 01:41:53;;;;;;;0.10;0.10;;;18.80;49.80;;;;;;5064389;28;20064;-51
2021/12/02 01:44:22;;;;;;;0.22;0.15;;;18.80;49.80;;;;;;5063980;28;20052;-53
2021/12/02 01:46:52;;;;;;;0.13;0.10;;;18.80;49.90;;;;;;5063380;28;20045;-55
2021/12/02 01:49:22;;;;;;;1.23;0.03;;;18.80;49.90;;;;;;5068832;28;20371;-56
2021/12/02 01:51:55;;;;;;;1.05;0.10;;;18.80;50.00;;;;;;5066848;28;20048;-53
2021/12/02 01:54:25;;;;;;;0.80;0.10;;;18.80;50.00;;;;;;5067899;28;20477;-55
2021/12/02 01:56:54;;;;;;;1.17;0.10;;;18.80;50.10;;;;;;5068094;28;20040;-51
2021/12/02 01:59:24;;;;;;;0.77;0.10;;;18.80;50.00;;;;;;5065525;28;20045;-51
2021/12/02 02:01:58;;;;;;;1.00;0.10;;;18.80;50.10;;;;;;5067854;28;20532;-54
2021/12/02 02:04:26;;;;;;;0.85;0.20;;;18.80;50.00;;;;;;5068912;28;20056;-53
2021/12/02 02:06:58;;;;;;;1.05;0.45;;;18.80;50.00;;;;;;5067825;28;20456;-53
2021/12/02 02:09:27;;;;;;;0.47;0.10;;;18.80;50.00;;;;;;5065257;28;20043;-54
2021/12/02 02:11:55;;;;;;;0.88;0.10;;;18.80;50.00;;;;;;5065966;28;20590;-53
2021/12/02 02:14:23;;;;;;;0.35;0.20;;;18.80;50.00;;;;;;5067742;28;20044;-53
2021/12/02 02:16:50;;;;;;;0.10;0.10;;;18.80;50.00;;;;;;5068013;28;20055;-54
2021/12/02 02:19:18;;;;;;;0.63;0.10;;;18.80;50.00;;;;;;5067683;28;20082;-53
2021/12/02 02:21:47;;;;;;;0.30;0.10;;;18.80;50.00;;;;;;5065625;28;20052;-56
2021/12/02 02:24:15;;;;;;;0.20;0.10;;;18.80;50.00;;;;;;5068022;28;20032;-53
2021/12/02 02:26:43;;;;;;;1.65;0.20;;;18.80;50.00;;;;;;5067366;28;20041;-55
2021/12/02 02:29:13;;;;;;;1.83;0.40;;;18.80;50.00;;;;;;5067681;28;20393;-55
2021/12/02 02:31:42;;;;;;;1.33;0.10;;;18.80;50.00;;;;;;5067692;28;20048;-53
2021/12/02 02:34:12;;;;;;;1.90;1.20;;;18.80;50.00;;;;;;5067893;28;20032;-54
2021/12/02 02:36:49;;;;;;;0.35;0.17;;;18.80;50.00;;;;;;5067384;28;20040;-53
2021/12/02 02:39:19;;;;;;;0.80;0.10;;;18.80;50.00;;;;;;5066192;28;20140;-56
2021/12/02 02:41:53;;;;;;;0.68;0.10;;;18.80;50.00;;;;;;5066921;28;20094;-56
2021/12/02 02:44:21;;;;;;;1.00;0.10;;;18.80;50.00;;;;;;5067071;28;20603;-55
2021/12/02 02:46:48;;;;;;;1.15;0.20;;;18.80;50.00;;;;;;5067496;28;20090;-52
2021/12/02 02:49:16;;;;;;;0.52;0.10;;;18.80;50.00;;;;;;5067008;28;20037;-54
2021/12/02 02:51:44;;;;;;;1.10;0.40;;;18.80;50.00;;;;;;5066775;28;20036;-56
2021/12/02 02:54:14;;;;;;;0.68;0.68;;;18.80;50.00;;;;;;5067102;28;20110;-53
2021/12/02 02:56:50;;;;;;;0.25;0.10;;;18.80;50.00;;;;;;5066460;28;20062;-55
2021/12/02 02:59:28;;;;;;;0.38;0.10;;;18.80;50.00;;;;;;5066831;28;20055;-56
2021/12/02 03:02:06;;;;;;;9.40;0.10;;;18.70;50.00;;;;;;5065754;28;20059;-51
2021/12/02 03:04:40;;;;;;;0.77;0.10;;;18.70;50.00;;;;;;5067110;28;20048;-54
2021/12/02 03:07:11;;;;;;;0.57;0.10;;;18.70;50.00;;;;;;5067053;28;20037;-53
2021/12/02 03:09:48;;;;;;;0.93;0.00;;;18.70;50.00;;;;;;5067069;28;20048;-56
2021/12/02 03:12:22;;;;;;;0.32;0.10;;;18.70;50.00;;;;;;5065389;28;20044;-53
2021/12/02 03:17:33;;;;;;;1.30;0.10;;;18.70;49.90;;;;;;5066421;28;20040;-54
2021/12/02 03:20:01;;;;;;;1.05;0.10;;;18.70;49.90;;;;;;5066860;28;20036;-54
2021/12/02 03:22:29;;;;;;;0.52;0.10;;;18.70;49.90;;;;;;5067073;28;20050;-55
2021/12/02 03:24:59;;;;;;;0.88;0.10;;;18.70;49.80;;;;;;5064626;28;20512;-51
2021/12/02 03:27:27;;;;;;;0.63;0.00;;;18.70;49.80;;;;;;5066129;28;20475;-55
2021/12/02 03:29:54;;;;;;;1.55;0.10;;;18.70;49.80;;;;;;5066788;28;20045;-55
2021/12/02 03:32:21;;;;;;;0.30;0.10;;;18.70;49.80;;;;;;5065732;28;20067;-56
2021/12/02 03:34:48;;;;;;;0.40;0.20;;;18.70;49.80;;;;;;5066485;28;20046;-56
2021/12/02 03:37:16;;;;;;;2.03;0.20;;;18.70;49.70;;;;;;5066159;28;20047;-54
2021/12/02 03:39:44;;;;;;;0.20;0.20;;;18.70;49.70;;;;;;5065924;28;20131;-53
2021/12/02 03:42:11;;;;;;;0.93;0.03;;;18.70;49.70;;;;;;5064700;28;20416;-56
2021/12/02 03:44:39;;;;;;;0.52;0.10;;;18.70;49.70;;;;;;5064851;28;20052;-56
2021/12/02 03:47:07;;;;;;;0.20;0.00;;;18.70;49.70;;;;;;5063139;28;20409;-57
2021/12/02 03:49:35;;;;;;;5.35;0.30;;;18.70;49.70;;;;;;5067739;28;20417;-56
2021/12/02 03:52:02;;;;;;;0.20;0.05;;;18.70;49.70;;;;;;5066262;28;20043;-57
2021/12/02 03:54:29;;;;;;;5.93;0.05;;;18.70;49.70;;;;;;5065548;28;20045;-57
2021/12/02 03:56:56;;;;;;;1.38;0.10;;;18.70;49.70;;;;;;5066012;28;20040;-55
2021/12/02 03:59:23;;;;;;;0.20;0.10;;;18.70;49.60;;;;;;5065702;28;20037;-56
2021/12/02 04:01:51;;;;;;;0.95;0.05;;;18.70;49.60;;;;;;5064162;28;20503;-57
2021/12/02 04:04:18;;;;;;;1.27;0.10;;;18.70;49.60;;;;;;5062180;28;20036;-57
2021/12/02 04:06:45;;;;;;;1.98;0.30;;;18.60;49.60;;;;;;5065999;28;20047;-57
2021/12/02 04:09:16;;;;;;;1.17;0.55;;;18.70;49.60;;;;;;5065242;28;20040;-56
2021/12/02 04:11:47;;;;;;;0.10;0.00;;;18.70;49.60;;;;;;5065087;28;20467;-56
2021/12/02 04:14:21;;;;;;;0.10;0.00;;;18.60;49.50;;;;;;5065004;28;20036;-57
2021/12/02 04:16:55;;;;;;;0.20;0.00;;;18.70;49.60;;;;;;5063841;28;20102;-58
2021/12/02 04:19:24;;;;;;;0.40;0.10;;;18.60;49.50;;;;;;5066264;28;20128;-57
2021/12/02 04:21:52;;;;;;;0.40;0.00;;;18.60;49.40;;;;;;5065110;28;20040;-57
2021/12/02 04:24:20;;;;;;;0.68;0.68;;;18.60;49.40;;;;;;5064176;28;20040;-56
2021/12/02 04:26:47;;;;;;;1.08;0.10;;;18.60;49.40;;;;;;5062621;28;20037;-56
2021/12/02 04:29:14;;;;;;;0.65;0.47;;;18.60;49.40;;;;;;5064714;28;20036;-57
2021/12/02 04:31:43;;;;;;;0.10;0.10;;;18.60;49.40;;;;;;5064903;28;20147;-58
2021/12/02 04:34:10;;;;;;;1.27;0.10;;;18.60;49.30;;;;;;5065828;28;20401;-57
2021/12/02 04:36:39;;;;;;;0.45;0.10;;;18.60;49.30;;;;;;5064659;28;20054;-57
2021/12/02 04:39:07;;;;;;;0.52;0.00;;;18.60;49.20;;;;;;5062741;28;20044;-55
2021/12/02 04:41:34;;;;;;;2.60;0.10;;;18.60;49.20;;;;;;5064631;28;20056;-55
2021/12/02 04:44:01;;;;;;;0.95;0.03;;;18.60;49.20;;;;;;5064210;28;20037;-54
2021/12/02 04:46:28;;;;;;;1.65;0.05;;;18.60;49.10;;;;;;5066310;28;20043;-56
2021/12/02 04:48:56;;;;;;;1.17;0.05;;;18.60;49.10;;;;;;5064671;28;20068;-57
2021/12/02 04:51:23;;;;;;;2.15;0.10;;;18.60;49.10;;;;;;5063284;28;20747;-56
2021/12/02 04:53:51;;;;;;;2.13;0.10;;;18.60;49.00;;;;;;5064409;28;20060;-52
2021/12/02 04:56:18;;;;;;;1.95;0.47;;;18.60;49.00;;;;;;5064491;28;20036;-56
2021/12/02 04:58:45;;;;;;;1.00;0.22;;;18.60;49.00;;;;;;5064331;28;20084;-55
2021/12/02 05:01:13;;;;;;;2.30;0.10;;;18.60;49.00;;;;;;5064542;28;20043;-58
2021/12/02 05:03:40;;;;;;;0.57;0.03;;;18.60;49.00;;;;;;5064363;28;20048;-56
2021/12/02 05:06:07;;;;;;;0.65;0.10;;;18.60;49.00;;;;;;5061760;28;20060;-59
2021/12/02 05:08:34;;;;;;;0.20;0.10;;;18.60;49.00;;;;;;5063501;28;20504;-53
2021/12/02 05:11:02;;;;;;;5.45;0.10;;;18.50;48.90;;;;;;5064932;28;20037;-54
2021/12/02 05:13:29;;;;;;;0.60;0.00;;;18.60;48.90;;;;;;5065797;28;20417;-55
2021/12/02 05:15:56;;;;;;;1.90;0.10;;;18.50;48.90;;;;;;5064576;28;20051;-51
2021/12/02 05:18:23;;;;;;;1.50;0.10;;;18.50;48.90;;;;;;5064520;28;20047;-53
2021/12/02 05:20:51;;;;;;;1.98;0.77;;;18.60;49.50;;;;;;5063814;28;20461;-55
2021/12/02 05:23:18;;;;;;;1.65;0.10;;;18.50;48.80;;;;;;5063773;28;20042;-55
2021/12/02 05:25:45;;;;;;;1.50;0.05;;;18.50;48.80;;;;;;5065187;28;20044;-54
2021/12/02 05:28:15;;;;;;;0.95;0.40;;;18.50;48.90;;;;;;5065561;28;20084;-54
2021/12/02 05:30:42;;;;;;;2.45;0.10;;;18.50;48.90;;;;;;5063861;28;20149;-54
2021/12/02 05:33:10;;;;;;;2.33;1.15;;;18.50;48.90;;;;;;5063698;28;20071;-57
2021/12/02 05:35:37;;;;;;;1.77;0.10;;;18.50;49.00;;;;;;5064319;28;20040;-55
2021/12/02 05:38:04;;;;;;;6.57;0.10;;;18.50;49.10;;;;;;5063141;28;20464;-54
2021/12/02 05:40:31;;;;;;;0.10;0.00;;;18.40;49.10;;;;;;5065965;28;20037;-54
2021/12/02 05:42:59;;;;;;;0.93;0.10;;;18.50;49.10;;;;;;5063534;28;20492;-54
2021/12/02 05:45:28;;;;;;;0.80;0.10;;;18.50;49.00;;;;;;5063807;28;20041;-55
2021/12/02 05:47:55;;;;;;;0.08;0.00;;;18.40;49.00;;;;;;5063774;28;20044;-56
2021/12/02 05:50:22;;;;;;;1.05;0.30;;;18.40;49.00;;;;;;5060819;28;20041;-57
2021/12/02 05:52:49;;;;;;;0.90;0.13;;;18.40;49.00;;;;;;5063986;28;20818;-57
2021/12/02 05:55:16;;;;;;;3.38;0.20;;;18.40;48.90;;;;;;5065074;28;20037;-56
2021/12/02 05:57:43;;;;;;;5.15;0.20;;;18.40;48.90;;;;;;5063222;28;20892;-57
2021/12/02 06:00:11;;;;;;;0.17;0.10;;;18.40;48.90;;;;;;5063720;28;20032;-57
2021/12/02 06:02:42;;;;;;;1.25;0.10;;;18.40;48.90;;;;;;5061561;28;20040;-57
2021/12/02 06:05:15;;;;;;;3.15;0.10;;;18.40;48.90;;;;;;5060485;28;20071;-56
2021/12/02 06:07:44;;;;;;;0.10;0.00;;;18.40;49.50;;;;;;5061633;28;20040;-55
2021/12/02 06:10:11;;;;;;;0.32;0.10;;;18.40;48.90;;;;;;5058639;28;20044;-56
2021/12/02 06:12:38;;;;;;;1.23;0.10;;;18.40;48.90;;;;;;5060465;28;20036;-56
2021/12/02 06:15:06;;;;;;;1.65;0.10;;;18.40;48.90;;;;;;5063382;28;20043;-54
2021/12/02 06:17:35;;;;;;;0.57;0.00;;;18.30;48.80;;;;;;5061527;28;20045;-56
2021/12/02 06:20:05;;;;;;;2.28;0.10;;;18.30;48.80;;;;;;5063590;28;20895;-56
2021/12/02 06:22:32;;;;;;;3.10;0.00;;;18.30;49.00;;;;;;5061132;28;20467;-57
2021/12/02 06:25:17;;;;;;;0.63;0.10;;;18.30;49.40;;;;;;5062952;28;20036;-53
2021/12/02 06:27:46;;;;;;;4.65;0.10;;;18.20;49.60;;;;;;5063403;28;20039;-57
2021/12/02 06:30:15;;;;;;;1.77;0.00;;;18.20;49.90;;;;;;5063002;28;20037;-56
2021/12/02 06:32:42;;;;;;;2.67;0.20;;;18.10;50.10;;;;;;5061005;28;20517;-55
2021/12/02 06:35:12;;;;;;;0.10;0.00;;;18.10;50.20;;;;;;5063327;28;20047;-54
2021/12/02 06:37:40;;;;;;;6.63;0.10;;;18.00;50.30;;;;;;5067730;28;20052;-56
2021/12/02 06:40:08;;;;;;;1.42;0.03;;;18.00;50.50;;;;;;5067885;28;20090;-57
2021/12/02 06:42:36;;;;;;;1.40;0.13;;;18.00;50.50;;;;;;5067007;28;20037;-56
2021/12/02 06:45:05;;;;;;;1.27;0.73;;;17.90;50.60;;;;;;5066857;28;20044;-55
2021/12/02 06:47:38;;;;;;;1.30;0.10;;;17.90;50.70;;;;;;5064841;28;20048;-55
2021/12/02 06:50:09;;;;;;;2.08;0.20;;;17.80;50.80;;;;;;5067129;28;20040;-55
2021/12/02 06:52:38;;;;;;;1.05;0.10;;;17.80;50.90;;;;;;5069198;28;20425;-57
2021/12/02 06:55:06;;;;;;;8.57;0.10;;;17.80;51.00;;;;;;5066631;28;20039;-57
2021/12/02 06:57:33;;;;;;;1.20;0.10;;;17.70;51.00;;;;;;5063635;28;20064;-56
2021/12/02 07:00:04;;;;;;;3.92;0.10;;;17.70;51.00;;;;;;5066503;28;20036;-55
2021/12/02 07:02:32;;;;;;;1.08;0.05;;;17.70;51.10;;;;;;5063873;28;20508;-56
2021/12/02 07:04:59;;;;;;;1.38;0.10;;;17.70;51.10;;;;;;5066851;28;20063;-56
2021/12/02 07:07:30;;;;;;;2.47;0.00;;;17.70;51.20;;;;;;5068353;28;20040;-53
2021/12/02 07:09:59;;;;;;;2.65;0.90;;;17.60;51.10;;;;;;5066066;28;20174;-52
2021/12/02 07:12:32;;;;;;;1.38;0.00;;;17.60;51.20;;;;;;5059314;28;20041;-56
2021/12/02 07:15:05;;;;;;;1.85;0.22;;;17.60;51.30;;;;;;5062406;28;20059;-56
2021/12/02 07:17:33;;;;;;;1.23;0.10;;;17.50;51.30;;;;;;5064352;28;20127;-58
2021/12/02 07:20:01;;;;;;;0.50;0.10;;;17.50;51.40;;;;;;5066322;28;20440;-55
2021/12/02 07:22:28;;;;;;;9.32;0.10;;;17.50;51.40;;;;;;5067951;28;20046;-58
2021/12/02 07:24:55;;;;;;;0.47;0.10;;;17.50;51.60;;;;;;5066243;28;20040;-57
2021/12/02 07:27:24;;;;;;;0.47;0.10;;;17.50;51.80;;;;;;5066642;28;20047;-56
2021/12/02 07:29:51;;;;;;;0.95;0.20;;;17.50;52.00;;;;;;5066167;28;20046;-52
2021/12/02 07:32:18;;;;;;;1.60;0.30;;;17.50;52.00;;;;;;5066765;28;20520;-57
2021/12/02 07:34:46;;;;;;;1.25;0.13;;;17.50;52.00;;;;;;5066553;28;20043;-53
2021/12/02 07:37:16;;;;;;;2.25;0.20;;;17.50;52.00;;;;;;5066984;28;20071;-54
2021/12/02 07:39:44;;;;;;;1.02;0.20;;;17.50;52.00;;;;;;5065970;28;20089;-56
2021/12/02 07:42:16;;;;;;;13.05;1.15;;;17.50;52.10;;;;;;5066117;28;20032;-57
2021/12/02 07:44:45;;;;;;;5.63;0.30;;;17.50;53.70;;;;;;5064656;28;20052;-60
2021/12/02 07:47:13;;;;;;;4.28;0.25;;;17.50;56.00;;;;;;5066147;28;20040;-60
2021/12/02 07:49:41;;;;;;;6.70;0.35;;;17.50;56.80;;;;;;5063484;28;20047;-59
2021/12/02 07:52:09;;;;;;;8.52;0.45;;;17.50;57.10;;;;;;5066465;28;20048;-60
2021/12/02 07:54:42;;;;;;;2.80;0.50;;;17.50;57.50;;;;;;5062661;28;20138;-60
2021/12/02 07:57:10;;;;;;;5.78;0.20;;;17.50;57.70;;;;;;5060677;28;20036;-60
2021/12/02 07:59:39;;;;;;;5.43;0.40;;;17.50;57.70;;;;;;5066438;28;20071;-59
2021/12/02 08:02:14;;;;;;;1.70;0.25;;;17.50;57.80;;;;;;5060902;28;20033;-59
2021/12/02 08:04:41;;;;;;;4.65;0.30;;;17.50;57.90;;;;;;5063230;28;20057;-60
2021/12/02 08:07:09;;;;;;;5.97;0.30;;;17.50;57.80;;;;;;5066218;28;20044;-58
2021/12/02 08:09:36;;;;;;;5.82;0.73;;;17.50;57.70;;;;;;5061909;28;20044;-59
2021/12/02 08:12:06;;;;;;;1.92;0.28;;;17.50;57.70;;;;;;5065548;28;20041;-58
2021/12/02 08:14:33;;;;;;;5.22;0.65;;;17.50;57.60;;;;;;5066219;28;20408;-60
2021/12/02 08:17:00;;;;;;;2.33;0.30;;;17.50;57.50;;;;;;5066072;28;20041;-60
2021/12/02 08:19:28;;;;;;;8.85;0.28;;;17.50;57.50;;;;;;5067136;28;20123;-59
2021/12/02 08:21:56;;;;;;;3.60;0.10;;;17.50;57.50;;;;;;5065455;28;20055;-59
2021/12/02 08:24:25;;;;;;;1.83;0.20;;;17.50;57.40;;;;;;5065695;28;20037;-59
2021/12/02 08:26:53;;;;;;;5.35;0.20;;;17.50;57.40;;;;;;5065574;28;20063;-59
2021/12/02 08:29:20;;;;;;;3.60;0.10;;;17.50;57.30;;;;;;5065234;28;20075;-57
2021/12/02 08:31:48;;;;;;;2.75;0.10;;;17.50;57.30;;;;;;5065398;28;20048;-57
2021/12/02 08:34:16;;;;;;;0.75;0.10;;;17.40;57.20;;;;;;5066132;28;20135;-60
2021/12/02 08:36:49;;;;;;;4.53;0.10;;;17.40;57.10;;;;;;5064897;28;20098;-59
2021/12/02 08:39:21;;;;;;;3.00;0.25;;;17.50;57.10;;;;;;5065116;28;20032;-60
2021/12/02 08:41:49;;;;;;;4.43;0.20;;;17.40;57.10;;;;;;5059849;28;20064;-60
2021/12/02 08:44:17;;;;;;;1.42;0.20;;;17.40;57.00;;;;;;5065333;28;20501;-60
2021/12/02 08:46:45;;;;;;;3.22;0.90;;;17.40;56.90;;;;;;5065405;28;20607;-59
2021/12/02 08:49:14;;;;;;;3.55;0.15;;;17.40;56.80;;;;;;5066476;28;20044;-59
2021/12/02 08:51:41;;;;;;;1.52;0.10;;;17.40;56.70;;;;;;5064990;28;20056;-60
2021/12/02 08:54:10;;;;;;;2.38;0.20;;;17.40;56.60;;;;;;5064905;28;20047;-60
2021/12/02 08:56:37;;;;;;;2.50;0.20;;;17.40;56.50;;;;;;5065070;28;20508;-60
2021/12/02 08:59:04;;;;;;;5.25;0.25;;;17.40;56.40;;;;;;5065109;28;20046;-60
2021/12/02 09:01:33;;;;;;;3.10;0.80;;;17.40;56.30;;;;;;5065875;28;20112;-59
2021/12/02 09:04:02;;;;;;;3.53;0.10;;;17.40;56.20;;;;;;5064217;28;20572;-59
2021/12/02 09:06:29;;;;;;;0.77;0.52;;;17.40;56.20;;;;;;5064531;28;20062;-60
2021/12/02 09:08:58;;;;;;;1.75;0.13;;;17.40;56.10;;;;;;5064925;28;20048;-60
2021/12/02 09:11:28;;;;;;;0.73;0.20;;;17.40;56.00;;;;;;5064904;28;20064;-60
2021/12/02 09:13:58;;;;;;;2.35;0.00;;;17.40;55.90;;;;;;5064951;28;20055;-59
2021/12/02 09:16:25;;;;;;;2.72;0.10;;;17.40;55.80;;;;;;5066174;28;20056;-60
2021/12/02 09:18:54;;;;;;;1.75;0.30;;;17.40;55.80;;;;;;5064212;28;20036;-60
2021/12/02 09:21:21;;;;;;;1.30;0.20;;;17.40;55.70;;;;;;5064500;28;20043;-60
2021/12/02 09:23:48;;;;;;;2.67;0.10;;;17.40;55.60;;;;;;5064331;28;20592;-60
2021/12/02 09:26:15;;;;;;;0.80;0.10;;;17.40;55.50;;;;;;5064786;28;20044;-61
2021/12/02 09:28:50;;;;;;;0.90;0.30;;;17.40;55.40;;;;;;5065122;28;20041;-61
2021/12/02 09:31:17;;;;;;;2.50;0.25;;;17.40;55.30;;;;;;5064149;28;20536;-58
2021/12/02 09:33:45;;;;;;;1.88;0.10;;;17.40;55.20;;;;;;5063718;28;20048;-61
2021/12/02 09:36:12;;;;;;;0.80;0.40;;;17.40;54.90;;;;;;5064335;28;20227;-61
2021/12/02 09:38:39;;;;;;;2.25;0.10;;;17.40;54.80;;;;;;5064795;28;20477;-60
2021/12/02 09:41:06;;;;;;;2.95;0.20;;;17.40;54.70;;;;;;5064829;28;20106;-60
2021/12/02 09:43:34;;;;;;;2.15;0.10;;;17.40;54.60;;;;;;5066253;28;20400;-60
2021/12/02 09:46:03;;;;;;;1.10;0.30;;;17.40;54.60;;;;;;5064800;28;20048;-60
2021/12/02 09:48:31;;;;;;;1.10;0.20;;;17.40;54.50;;;;;;5059784;28;20048;-60
2021/12/02 09:51:04;;;;;;;1.67;0.30;;;17.40;54.40;;;;;;5064098;28;20048;-58
2021/12/02 09:53:34;;;;;;;0.98;0.20;;;17.40;54.40;;;;;;5064409;28;20037;-57
2021/12/02 09:56:10;;;;;;;1.25;0.10;;;17.40;54.30;;;;;;5064091;28;20416;-58
2021/12/02 09:58:37;;;;;;;1.75;0.10;;;17.40;54.20;;;;;;5061391;28;20068;-58
2021/12/02 10:01:09;;;;;;;1.23;0.10;;;17.50;54.20;;;;;;5064854;28;20048;-59
2021/12/02 10:03:38;;;;;;;1.73;0.30;;;17.50;54.00;;;;;;5063952;28;20551;-59
2021/12/02 10:06:07;;;;;;;1.13;0.10;;;17.50;53.90;;;;;;5064076;28;20049;-59
2021/12/02 10:08:41;;;;;;;2.72;0.10;;;17.50;53.80;;;;;;5066167;28;20121;-58
2021/12/02 10:11:11;;;;;;;1.38;0.10;;;17.50;53.80;;;;;;5066375;28;20041;-57
2021/12/02 10:13:45;;;;;;;2.53;0.10;;;17.50;53.70;;;;;;5067104;28;20048;-59
2021/12/02 10:16:23;;;;;;;3.95;0.10;;;17.50;53.60;;;;;;5069405;28;20048;-59
2021/12/02 10:21:40;;;;;;;0.57;0.10;;;17.50;53.20;;;;;;5067407;28;20075;-59
2021/12/02 10:24:11;;;;;;;2.05;0.85;;;17.60;53.20;;;;;;5067731;28;20041;-59
2021/12/02 10:26:42;;;;;;;2.40;0.28;;;17.60;53.00;;;;;;5065936;28;20036;-58
2021/12/02 10:29:15;;;;;;;1.20;0.17;;;17.60;52.90;;;;;;5068084;28;20047;-59
2021/12/02 10:31:47;;;;;;;1.20;0.22;;;17.60;52.80;;;;;;5067627;28;20532;-59
2021/12/02 10:34:17;;;;;;;3.28;0.20;;;17.70;52.80;;;;;;5068680;28;20086;-58
2021/12/02 10:36:45;;;;;;;1.38;0.30;;;17.60;52.60;;;;;;5067368;28;20044;-59
2021/12/02 10:39:17;;;;;;;1.60;0.40;;;17.70;52.60;;;;;;5068036;28;20611;-59
2021/12/02 10:41:45;;;;;;;1.40;0.50;;;17.70;52.40;;;;;;5061391;28;20527;-58
2021/12/02 10:44:19;;;;;;;3.85;0.40;;;17.70;52.30;;;;;;5061392;28;20040;-55
2021/12/02 10:47:01;;;;;;;2.22;1.02;;;17.80;52.10;;;;;;5067549;28;20536;-59
2021/12/02 10:49:30;;;;;;;2.83;0.30;;;17.80;51.80;;;;;;5068645;28;20123;-58
2021/12/02 10:52:00;;;;;;;1.92;0.30;;;17.80;51.70;;;;;;5067371;28;20524;-58
2021/12/02 10:54:31;;;;;;;1.10;0.10;;;17.90;51.70;;;;;;5066776;28;20047;-58
2021/12/02 10:57:01;;;;;;;1.15;0.20;;;17.90;51.60;;;;;;5067442;28;20049;-58
2021/12/02 10:59:34;;;;;;;3.50;0.30;;;17.90;51.50;;;;;;5067174;28;20147;-58
2021/12/02 11:02:06;;;;;;;3.22;0.43;;;17.90;51.20;;;;;;5067059;28;20109;-58
2021/12/02 11:04:37;;;;;;;3.10;0.32;;;18.00;51.10;;;;;;5068912;28;20045;-58
2021/12/02 11:07:10;;;;;;;0.88;0.30;;;18.00;51.00;;;;;;5068165;28;20052;-58
2021/12/02 11:09:39;;;;;;;0.60;0.50;;;18.00;50.90;;;;;;5064010;28;20493;-57
2021/12/02 11:12:13;;;;;;;1.20;0.38;;;18.00;50.70;;;;;;5066791;28;20047;-59
2021/12/02 11:14:43;;;;;;;2.50;0.32;;;18.10;50.50;;;;;;5065671;28;20040;-59
2021/12/02 11:17:14;;;;;;;3.03;0.10;;;18.10;50.50;;;;;;5067058;28;20052;-59
2021/12/02 11:19:44;;;;;;;1.80;0.40;;;18.10;50.30;;;;;;5065902;28;20464;-60
2021/12/02 11:22:14;;;;;;;4.35;0.28;;;18.10;50.10;;;;;;5067568;28;20575;-59
2021/12/02 11:24:42;;;;;;;1.85;0.40;;;18.20;49.80;;;;;;5065342;28;20102;-60
2021/12/02 11:27:16;;;;;;;2.63;0.20;;;18.20;49.70;;;;;;5066428;28;20040;-59
2021/12/02 11:30:02;;;;;;;3.90;0.55;;;18.20;49.60;;;;;;5066726;28;20041;-59
2021/12/02 11:32:33;;;;;;;;;;;18.20;49.50;;;;;;5060830;28;20809;-61
2021/12/02 11:35:03;;;;;;;1.00;0.10;;;18.20;49.80;;;;;;5066738;28;19959;-55
2021/12/02 11:37:31;;;;;;;2.95;0.10;;;18.20;49.80;;;;;;5067962;28;20047;-58
2021/12/02 11:40:04;;;;;;;1.00;0.20;;;18.20;49.70;;;;;;5067101;28;20908;-60
2021/12/02 11:42:32;;;;;;;2.45;0.22;;;18.20;49.60;;;;;;5066395;28;20036;-58
2021/12/02 11:44:59;;;;;;;1.98;0.50;;;18.20;49.50;;;;;;5066087;28;20429;-61
2021/12/02 11:47:27;;;;;;;1.40;0.32;;;18.20;49.40;;;;;;5066546;28;20044;-59
2021/12/02 11:49:55;;;;;;;0.70;0.40;;;18.20;49.20;;;;;;5066377;28;20047;-59
2021/12/02 11:52:22;;;;;;;1.08;0.35;;;18.20;49.00;;;;;;5067824;28;20037;-59
2021/12/02 11:54:50;;;;;;;2.00;0.30;;;18.20;48.60;;;;;;5066310;28;20049;-59
2021/12/02 11:57:17;;;;;;;2.38;0.25;;;18.30;48.20;;;;;;5065969;28;20040;-60
2021/12/02 11:59:44;;;;;;;3.50;0.40;;;18.30;48.30;;;;;;5066291;28;20041;-59
2021/12/02 12:02:11;;;;;;;2.90;0.55;;;18.40;48.70;;;;;;5066122;28;20048;-59
2021/12/02 12:04:39;;;;;;;1.15;0.15;;;18.40;47.80;;;;;;5066562;28;20056;-60
2021/12/02 12:07:14;;;;;;;4.18;0.30;;;18.50;47.70;;;;;;5064095;28;20060;-59
2021/12/02 12:09:42;;;;;;;2.15;0.45;;;18.50;47.40;;;;;;5066147;28;20390;-59
2021/12/02 12:12:10;;;;;;;0.45;0.17;;;18.50;47.60;;;;;;5065790;28;20040;-60
2021/12/02 12:14:40;;;;;;;4.07;0.77;;;18.50;48.00;;;;;;5065735;28;20448;-59
2021/12/02 12:17:09;;;;;;;1.75;0.20;;;18.60;48.10;;;;;;5066016;28;20067;-60
2021/12/02 12:19:42;;;;;;;3.38;0.20;;;18.60;46.80;;;;;;5066843;28;20045;-60
2021/12/02 12:22:13;;;;;;;0.68;0.30;;;18.60;47.10;;;;;;5066356;28;20136;-59
2021/12/02 12:24:47;;;;;;;3.13;0.30;;;18.70;46.80;;;;;;5065574;28;20048;-59
2021/12/02 12:27:16;;;;;;;2.63;0.38;;;18.70;46.60;;;;;;5065120;28;20159;-59
2021/12/02 12:29:46;;;;;;;1.30;0.13;;;18.70;47.20;;;;;;5065492;28;20040;-59
2021/12/02 12:32:22;;;;;;;1.73;0.68;;;18.70;46.70;;;;;;5065167;28;20390;-59
2021/12/02 12:34:56;;;;;;;1.05;0.85;;;18.80;45.80;;;;;;5065619;28;20151;-58
2021/12/02 12:40:39;;;;;;;0.20;0.17;;;18.90;47.10;;;;;;5062860;28;20055;-57
2021/12/02 12:43:24;;;;;;;2.92;0.40;;;18.90;47.10;;;;;;5064193;28;20052;-59
2021/12/02 12:46:11;;;;;;;1.65;0.20;;;19.00;47.00;;;;;;5065238;28;20041;-59
2021/12/02 12:48:38;;;;;;;2.72;0.60;;;19.10;47.10;;;;;;5065632;28;20068;-57
2021/12/02 12:51:19;;;;;;;0.88;0.20;;;19.10;47.00;;;;;;5063348;28;20036;-59
2021/12/02 12:53:50;;;;;;;1.95;0.20;;;19.20;46.90;;;;;;5060165;28;20139;-57
2021/12/02 12:56:19;;;;;;;1.55;0.20;;;19.20;46.70;;;;;;5064661;28;20527;-58
2021/12/02 12:59:08;;;;;;;2.17;0.10;;;19.30;46.70;;;;;;5065459;28;20072;-59
2021/12/02 13:01:37;;;;;;;1.63;0.20;;;19.40;46.50;;;;;;5064277;28;20045;-59
2021/12/02 13:04:11;;;;;;;0.50;0.10;;;19.40;46.50;;;;;;5065207;28;20060;-58
2021/12/02 13:07:17;;;;;;;0.25;0.10;;;19.40;46.00;;;;;;5064747;28;20056;-59
2021/12/02 13:09:54;;;;;;;1.10;0.20;;;19.50;45.20;;;;;;5062634;28;20474;-59
2021/12/02 13:12:29;;;;;;;0.52;0.10;;;19.40;45.00;;;;;;5064141;28;20134;-59